createdAt,value
2017-08-15T00:00:35.781Z,14.68
2017-08-15T00:01:36.405Z,14.62
2017-08-15T00:02:37.024Z,14.66
2017-08-15T00:03:37.638Z,14.72
2017-08-15T00:04:38.293Z,14.72
2017-08-15T00:05:38.907Z,14.66
2017-08-15T00:06:39.527Z,14.65
2017-08-15T00:07:40.190Z,14.69
2017-08-15T00:08:40.807Z,14.68
2017-08-15T00:09:41.426Z,14.73
2017-08-15T00:10:42.039Z,14.70
2017-08-15T00:11:42.656Z,14.69
2017-08-15T00:12:43.272Z,14.70
2017-08-15T00:13:43.888Z,14.66
2017-08-15T00:14:44.541Z,14.66
2017-08-15T00:15:45.158Z,14.59
2017-08-15T00:16:45.772Z,14.58
2017-08-15T00:17:46.440Z,14.54
2017-08-15T00:18:47.062Z,14.45
2017-08-15T00:19:47.680Z,14.44
2017-08-15T00:20:48.301Z,14.50
2017-08-15T00:21:48.914Z,14.50
2017-08-15T00:22:49.586Z,14.36
2017-08-15T00:23:50.204Z,14.40
2017-08-15T00:24:50.817Z,14.50
2017-08-15T00:25:51.434Z,14.40
2017-08-15T00:26:52.083Z,14.32
2017-08-15T00:27:52.704Z,14.37
2017-08-15T00:28:53.354Z,14.35
2017-08-15T00:29:53.982Z,14.35
2017-08-15T00:30:54.629Z,14.28
2017-08-15T00:31:55.284Z,14.20
2017-08-15T00:32:55.950Z,14.30
2017-08-15T00:33:56.595Z,14.25
2017-08-15T00:34:57.210Z,14.22
2017-08-15T00:35:57.858Z,14.20
2017-08-15T00:36:58.472Z,14.30
2017-08-15T00:37:59.089Z,14.36
2017-08-15T00:38:59.705Z,14.29
2017-08-15T00:40:00.319Z,14.26
2017-08-15T00:41:00.943Z,14.18
2017-08-15T00:42:01.558Z,14.17
2017-08-15T00:43:02.173Z,14.20
2017-08-15T00:44:02.790Z,14.29
2017-08-15T00:45:03.410Z,14.14
2017-08-15T00:46:04.025Z,14.12
2017-08-15T00:47:04.676Z,14.17
2017-08-15T00:48:05.289Z,14.15
2017-08-15T00:49:05.909Z,14.10
2017-08-15T00:50:06.522Z,14.08
2017-08-15T00:51:07.145Z,14.15
2017-08-15T00:52:07.759Z,14.11
2017-08-15T00:53:08.375Z,14.22
2017-08-15T00:54:08.988Z,14.10
2017-08-15T00:55:09.604Z,14.12
2017-08-15T00:56:10.220Z,14.03
2017-08-15T00:57:10.837Z,14.14
2017-08-15T00:58:11.455Z,14.18
2017-08-15T00:59:12.070Z,14.12
2017-08-15T01:00:12.692Z,14.20
2017-08-15T01:01:13.315Z,14.12
2017-08-15T01:02:13.920Z,14.11
2017-08-15T01:03:14.547Z,14.15
2017-08-15T01:04:15.163Z,14.11
2017-08-15T01:05:15.781Z,14.12
2017-08-15T01:06:16.395Z,14.10
2017-08-15T01:07:17.010Z,14.10
2017-08-15T01:08:17.675Z,14.05
2017-08-15T01:09:18.294Z,13.96
2017-08-15T01:10:18.908Z,14.04
2017-08-15T01:11:19.528Z,13.93
2017-08-15T01:12:20.141Z,13.97
2017-08-15T01:13:20.756Z,13.97
2017-08-15T01:14:21.409Z,14.05
2017-08-15T01:15:22.023Z,14.10
2017-08-15T01:16:22.643Z,14.12
2017-08-15T01:17:23.255Z,14.11
2017-08-15T01:18:23.871Z,14.10
2017-08-15T01:19:24.486Z,14.10
2017-08-15T01:20:25.103Z,14.10
2017-08-15T01:21:25.719Z,14.14
2017-08-15T01:22:26.332Z,14.12
2017-08-15T01:23:26.998Z,14.10
2017-08-15T01:24:27.652Z,14.07
2017-08-15T01:25:28.268Z,14.08
2017-08-15T01:26:28.890Z,14.07
2017-08-15T01:27:29.503Z,14.00
2017-08-15T01:28:30.119Z,14.03
2017-08-15T01:29:30.733Z,13.95
2017-08-15T01:30:31.347Z,14.05
2017-08-15T01:31:31.964Z,13.99
2017-08-15T01:32:32.581Z,13.97
2017-08-15T01:33:33.196Z,13.95
2017-08-15T01:34:33.812Z,13.99
2017-08-15T01:35:34.427Z,13.99
2017-08-15T01:36:35.082Z,14.00
2017-08-15T01:37:35.695Z,13.96
2017-08-15T01:38:36.314Z,13.96
2017-08-15T01:39:36.925Z,13.97
2017-08-15T01:40:37.575Z,14.00
2017-08-15T01:41:38.190Z,13.95
2017-08-15T01:42:38.840Z,14.03
2017-08-15T01:43:39.455Z,13.95
2017-08-15T01:44:40.071Z,13.95
2017-08-15T01:45:40.690Z,13.81
2017-08-15T01:46:41.340Z,13.78
2017-08-15T01:47:41.963Z,13.72
2017-08-15T01:48:42.574Z,13.71
2017-08-15T01:49:43.189Z,13.72
2017-08-15T01:50:43.808Z,13.70
2017-08-15T01:51:44.421Z,13.67
2017-08-15T01:52:45.037Z,13.71
2017-08-15T01:53:45.654Z,13.67
2017-08-15T01:54:46.273Z,13.63
2017-08-15T01:55:46.919Z,13.62
2017-08-15T01:56:47.536Z,13.59
2017-08-15T01:57:48.149Z,13.65
2017-08-15T01:58:48.769Z,13.63
2017-08-15T01:59:49.379Z,13.63
2017-08-15T02:00:50.000Z,13.70
2017-08-15T02:01:50.621Z,13.67
2017-08-15T02:02:51.235Z,13.59
2017-08-15T02:03:51.853Z,13.65
2017-08-15T02:04:52.501Z,13.59
2017-08-15T02:05:53.117Z,13.65
2017-08-15T02:06:53.733Z,13.63
2017-08-15T02:07:54.347Z,13.53
2017-08-15T02:08:54.962Z,13.60
2017-08-15T02:09:55.579Z,13.52
2017-08-15T02:10:56.201Z,13.54
2017-08-15T02:11:56.821Z,13.47
2017-08-15T02:12:57.432Z,13.52
2017-08-15T02:13:58.049Z,13.47
2017-08-15T02:14:58.668Z,13.47
2017-08-15T02:15:59.281Z,13.50
2017-08-15T02:16:59.896Z,13.57
2017-08-15T02:18:00.511Z,13.57
2017-08-15T02:19:01.126Z,13.57
2017-08-15T02:20:01.741Z,13.54
2017-08-15T02:21:02.358Z,13.59
2017-08-15T02:22:02.977Z,13.50
2017-08-15T02:23:03.595Z,13.59
2017-08-15T02:24:04.208Z,13.57
2017-08-15T02:25:04.829Z,13.52
2017-08-15T02:26:05.442Z,13.59
2017-08-15T02:27:06.062Z,13.60
2017-08-15T02:28:06.677Z,13.63
2017-08-15T02:29:07.293Z,13.62
2017-08-15T02:30:07.942Z,13.59
2017-08-15T02:31:08.564Z,13.56
2017-08-15T02:32:09.178Z,13.59
2017-08-15T02:33:09.793Z,13.59
2017-08-15T02:34:10.411Z,13.57
2017-08-15T02:35:11.023Z,13.53
2017-08-15T02:36:11.637Z,13.56
2017-08-15T02:37:12.252Z,13.49
2017-08-15T02:38:12.907Z,13.49
2017-08-15T02:39:13.571Z,13.47
2017-08-15T02:40:14.186Z,13.49
2017-08-15T02:41:14.800Z,13.44
2017-08-15T02:42:15.419Z,13.49
2017-08-15T02:43:16.032Z,13.42
2017-08-15T02:44:16.684Z,13.52
2017-08-15T02:45:17.302Z,13.49
2017-08-15T02:46:17.914Z,13.54
2017-08-15T02:47:18.530Z,13.57
2017-08-15T02:48:19.152Z,13.41
2017-08-15T02:49:19.771Z,13.60
2017-08-15T02:50:20.383Z,13.63
2017-08-15T02:51:20.997Z,13.59
2017-08-15T02:52:21.618Z,13.57
2017-08-15T02:53:22.265Z,13.56
2017-08-15T02:54:22.882Z,13.53
2017-08-15T02:55:23.504Z,13.52
2017-08-15T02:56:24.116Z,13.49
2017-08-15T02:57:24.737Z,13.56
2017-08-15T02:58:25.349Z,13.49
2017-08-15T02:59:25.962Z,13.49
2017-08-15T03:00:26.577Z,13.46
2017-08-15T03:01:27.194Z,13.42
2017-08-15T03:02:27.809Z,13.44
2017-08-15T03:03:28.433Z,13.47
2017-08-15T03:04:29.044Z,13.49
2017-08-15T03:05:29.664Z,13.47
2017-08-15T03:06:30.275Z,13.47
2017-08-15T03:07:30.888Z,13.57
2017-08-15T03:08:31.505Z,13.50
2017-08-15T03:09:32.127Z,13.59
2017-08-15T03:10:32.739Z,13.57
2017-08-15T03:11:33.353Z,13.59
2017-08-15T03:12:33.969Z,13.52
2017-08-15T03:13:34.583Z,13.53
2017-08-15T03:14:35.198Z,13.54
2017-08-15T03:15:35.813Z,13.50
2017-08-15T03:16:36.429Z,13.50
2017-08-15T03:17:37.053Z,13.49
2017-08-15T03:18:37.668Z,13.50
2017-08-15T03:19:38.287Z,13.47
2017-08-15T03:20:38.904Z,13.52
2017-08-15T03:21:39.521Z,13.53
2017-08-15T03:22:40.137Z,13.47
2017-08-15T03:23:40.792Z,13.49
2017-08-15T03:24:41.403Z,13.50
2017-08-15T03:25:42.018Z,13.44
2017-08-15T03:26:42.635Z,13.50
2017-08-15T03:27:43.250Z,13.49
2017-08-15T03:28:43.870Z,13.46
2017-08-15T03:29:44.483Z,13.53
2017-08-15T03:30:45.100Z,13.49
2017-08-15T03:31:45.715Z,13.52
2017-08-15T03:32:46.336Z,13.56
2017-08-15T03:33:46.949Z,13.49
2017-08-15T03:34:47.569Z,13.57
2017-08-15T03:35:48.222Z,13.56
2017-08-15T03:36:48.842Z,13.56
2017-08-15T03:37:49.462Z,13.56
2017-08-15T03:38:50.079Z,13.50
2017-08-15T03:39:50.694Z,13.47
2017-08-15T03:40:51.305Z,13.50
2017-08-15T03:41:51.926Z,13.47
2017-08-15T03:42:52.538Z,13.44
2017-08-15T03:43:53.156Z,13.49
2017-08-15T03:44:53.809Z,13.39
2017-08-15T03:45:54.423Z,13.33
2017-08-15T03:46:55.043Z,13.33
2017-08-15T03:47:55.656Z,13.33
2017-08-15T03:48:56.272Z,13.42
2017-08-15T03:49:56.942Z,13.33
2017-08-15T03:50:57.557Z,13.38
2017-08-15T03:51:58.211Z,13.37
2017-08-15T03:52:58.829Z,13.39
2017-08-15T03:53:59.449Z,13.38
2017-08-15T03:55:00.147Z,13.33
2017-08-15T03:56:00.763Z,13.42
2017-08-15T03:57:01.411Z,13.49
2017-08-15T03:58:02.026Z,13.35
2017-08-15T03:59:02.643Z,13.44
2017-08-15T04:00:03.265Z,13.35
2017-08-15T04:01:03.873Z,13.35
2017-08-15T04:02:04.488Z,13.33
2017-08-15T04:03:05.103Z,13.37
2017-08-15T04:04:05.717Z,13.31
2017-08-15T04:05:06.383Z,13.27
2017-08-15T04:06:07.005Z,13.22
2017-08-15T04:07:07.616Z,13.22
2017-08-15T04:08:08.263Z,13.30
2017-08-15T04:09:08.919Z,13.20
2017-08-15T04:10:09.537Z,13.33
2017-08-15T04:11:10.149Z,13.28
2017-08-15T04:12:10.768Z,13.33
2017-08-15T04:13:11.379Z,13.22
2017-08-15T04:14:11.994Z,13.11
2017-08-15T04:15:12.617Z,13.11
2017-08-15T04:16:13.230Z,13.18
2017-08-15T04:17:13.844Z,13.12
2017-08-15T04:18:14.466Z,13.16
2017-08-15T04:19:15.077Z,13.12
2017-08-15T04:20:15.691Z,13.23
2017-08-15T04:21:16.307Z,13.23
2017-08-15T04:22:16.929Z,13.25
2017-08-15T04:23:17.541Z,13.23
2017-08-15T04:24:18.162Z,13.31
2017-08-15T04:25:18.779Z,13.27
2017-08-15T04:26:19.391Z,13.20
2017-08-15T04:27:20.011Z,13.19
2017-08-15T04:28:20.624Z,13.31
2017-08-15T04:29:21.250Z,13.22
2017-08-15T04:30:21.863Z,13.25
2017-08-15T04:31:22.478Z,13.25
2017-08-15T04:32:23.092Z,13.25
2017-08-15T04:33:23.734Z,13.19
2017-08-15T04:34:24.326Z,13.16
2017-08-15T04:35:24.939Z,13.20
2017-08-15T04:36:25.561Z,13.23
2017-08-15T04:37:26.173Z,13.30
2017-08-15T04:38:26.789Z,13.20
2017-08-15T04:39:27.413Z,13.19
2017-08-15T04:40:28.063Z,13.23
2017-08-15T04:41:28.679Z,13.33
2017-08-15T04:42:29.329Z,13.18
2017-08-15T04:43:29.985Z,13.23
2017-08-15T04:44:30.599Z,13.22
2017-08-15T04:45:31.214Z,13.19
2017-08-15T04:46:31.835Z,13.31
2017-08-15T04:47:32.450Z,13.23
2017-08-15T04:48:33.066Z,13.28
2017-08-15T04:49:33.683Z,13.33
2017-08-15T04:50:34.305Z,13.30
2017-08-15T04:51:34.959Z,13.22
2017-08-15T04:52:35.572Z,13.23
2017-08-15T04:53:36.188Z,13.23
2017-08-15T04:54:36.805Z,13.25
2017-08-15T04:55:37.425Z,13.20
2017-08-15T04:56:38.045Z,13.23
2017-08-15T04:57:38.658Z,13.31
2017-08-15T04:58:39.280Z,13.25
2017-08-15T04:59:39.893Z,13.30
2017-08-15T05:00:40.510Z,13.25
2017-08-15T05:01:41.127Z,13.22
2017-08-15T05:02:41.749Z,13.13
2017-08-15T05:03:42.369Z,13.13
2017-08-15T05:04:42.987Z,13.16
2017-08-15T05:05:43.642Z,13.22
2017-08-15T05:06:44.258Z,13.20
2017-08-15T05:07:44.909Z,13.25
2017-08-15T05:08:45.526Z,13.30
2017-08-15T05:09:46.142Z,13.23
2017-08-15T05:10:46.758Z,13.19
2017-08-15T05:11:47.375Z,13.28
2017-08-15T05:12:47.992Z,13.23
2017-08-15T05:13:48.612Z,13.28
2017-08-15T05:14:49.226Z,13.35
2017-08-15T05:15:49.842Z,13.25
2017-08-15T05:16:50.464Z,13.38
2017-08-15T05:17:51.076Z,13.35
2017-08-15T05:18:51.695Z,13.30
2017-08-15T05:19:52.313Z,13.28
2017-08-15T05:20:52.928Z,13.27
2017-08-15T05:21:53.545Z,13.16
2017-08-15T05:22:54.185Z,13.33
2017-08-15T05:23:54.782Z,13.30
2017-08-15T05:24:55.395Z,13.37
2017-08-15T05:25:56.063Z,13.31
2017-08-15T05:26:56.685Z,13.27
2017-08-15T05:27:57.296Z,13.38
2017-08-15T05:28:57.913Z,13.35
2017-08-15T05:29:58.529Z,13.27
2017-08-15T05:30:59.147Z,13.30
2017-08-15T05:31:59.769Z,13.23
2017-08-15T05:33:00.388Z,13.27
2017-08-15T05:34:01.037Z,13.27
2017-08-15T05:35:01.692Z,13.28
2017-08-15T05:36:02.353Z,13.33
2017-08-15T05:37:02.976Z,13.33
2017-08-15T05:38:03.588Z,13.30
2017-08-15T05:39:04.211Z,13.31
2017-08-15T05:40:04.825Z,13.33
2017-08-15T05:41:05.474Z,13.49
2017-08-15T05:42:06.088Z,13.42
2017-08-15T05:43:06.705Z,13.53
2017-08-15T05:44:07.321Z,13.49
2017-08-15T05:45:07.939Z,13.46
2017-08-15T05:46:08.589Z,13.47
2017-08-15T05:47:09.205Z,13.49
2017-08-15T05:48:09.819Z,13.49
2017-08-15T05:49:10.437Z,13.47
2017-08-15T05:50:11.052Z,13.49
2017-08-15T05:51:11.675Z,13.46
2017-08-15T05:52:12.287Z,13.46
2017-08-15T05:53:12.905Z,13.44
2017-08-15T05:54:13.520Z,13.44
2017-08-15T05:55:14.142Z,13.53
2017-08-15T05:56:14.754Z,13.46
2017-08-15T05:57:15.369Z,13.46
2017-08-15T05:58:15.986Z,13.46
2017-08-15T05:59:16.603Z,13.44
2017-08-15T06:00:17.220Z,13.38
2017-08-15T06:01:17.837Z,13.44
2017-08-15T06:02:18.453Z,13.42
2017-08-15T06:03:19.068Z,13.44
2017-08-15T06:04:19.684Z,13.44
2017-08-15T06:05:20.301Z,13.42
2017-08-15T06:06:20.919Z,13.49
2017-08-15T06:07:21.535Z,13.53
2017-08-15T06:08:22.151Z,13.59
2017-08-15T06:09:22.777Z,13.68
2017-08-15T06:10:23.386Z,13.72
2017-08-15T06:11:24.006Z,13.77
2017-08-15T06:12:24.626Z,13.77
2017-08-15T06:13:25.241Z,13.83
2017-08-15T06:14:25.859Z,13.95
2017-08-15T06:15:26.469Z,13.99
2017-08-15T06:16:27.083Z,13.92
2017-08-15T06:17:27.701Z,14.05
2017-08-15T06:18:28.320Z,14.05
2017-08-15T06:19:28.939Z,14.11
2017-08-15T06:20:29.553Z,14.23
2017-08-15T06:21:30.201Z,14.28
2017-08-15T06:22:30.822Z,14.22
2017-08-15T06:23:31.440Z,14.32
2017-08-15T06:24:32.096Z,14.33
2017-08-15T06:25:32.712Z,14.33
2017-08-15T06:26:33.378Z,14.40
2017-08-15T06:27:33.993Z,14.41
2017-08-15T06:28:34.611Z,14.35
2017-08-15T06:29:35.226Z,14.47
2017-08-15T06:30:35.852Z,14.41
2017-08-15T06:31:36.466Z,14.48
2017-08-15T06:32:37.085Z,14.54
2017-08-15T06:33:37.701Z,14.51
2017-08-15T06:34:38.317Z,14.50
2017-08-15T06:35:38.942Z,14.51
2017-08-15T06:36:39.563Z,14.60
2017-08-15T06:37:40.178Z,14.65
2017-08-15T06:38:40.800Z,14.65
2017-08-15T06:39:41.417Z,14.73
2017-08-15T06:40:42.036Z,14.82
2017-08-15T06:41:42.658Z,14.79
2017-08-15T06:42:43.279Z,14.78
2017-08-15T06:43:43.893Z,14.89
2017-08-15T06:44:44.510Z,14.89
2017-08-15T06:45:45.133Z,14.96
2017-08-15T06:46:45.782Z,14.91
2017-08-15T06:47:46.404Z,14.99
2017-08-15T06:48:47.021Z,14.92
2017-08-15T06:49:47.639Z,15.03
2017-08-15T06:50:48.258Z,14.96
2017-08-15T06:51:48.877Z,15.00
2017-08-15T06:52:49.497Z,14.99
2017-08-15T06:53:50.111Z,15.04
2017-08-15T06:54:50.733Z,15.02
2017-08-15T06:55:51.346Z,15.07
2017-08-15T06:56:51.965Z,15.00
2017-08-15T06:57:52.582Z,15.10
2017-08-15T06:58:53.204Z,15.04
2017-08-15T06:59:53.820Z,15.04
2017-08-15T07:00:54.437Z,15.10
2017-08-15T07:01:55.104Z,15.11
2017-08-15T07:02:55.721Z,15.11
2017-08-15T07:03:56.342Z,15.14
2017-08-15T07:04:56.958Z,15.11
2017-08-15T07:05:57.611Z,15.14
2017-08-15T07:06:58.278Z,15.19
2017-08-15T07:07:58.898Z,15.15
2017-08-15T07:08:59.521Z,15.22
2017-08-15T07:10:00.135Z,15.21
2017-08-15T07:11:00.758Z,15.15
2017-08-15T07:12:01.429Z,15.29
2017-08-15T07:13:02.049Z,15.31
2017-08-15T07:14:02.665Z,15.33
2017-08-15T07:15:03.282Z,15.35
2017-08-15T07:16:03.900Z,15.28
2017-08-15T07:17:04.519Z,15.28
2017-08-15T07:18:05.136Z,15.31
2017-08-15T07:19:05.755Z,15.36
2017-08-15T07:20:06.374Z,15.40
2017-08-15T07:21:06.993Z,15.28
2017-08-15T07:22:07.663Z,15.42
2017-08-15T07:23:08.317Z,15.44
2017-08-15T07:24:08.935Z,15.47
2017-08-15T07:25:09.560Z,15.47
2017-08-15T07:26:10.178Z,15.52
2017-08-15T07:27:10.799Z,15.57
2017-08-15T07:28:11.452Z,15.75
2017-08-15T07:29:12.072Z,15.70
2017-08-15T07:30:12.692Z,15.82
2017-08-15T07:31:13.310Z,15.86
2017-08-15T07:32:13.931Z,15.84
2017-08-15T07:33:14.553Z,15.84
2017-08-15T07:34:15.203Z,15.88
2017-08-15T07:35:15.827Z,15.92
2017-08-15T07:36:16.449Z,15.91
2017-08-15T07:37:17.069Z,15.86
2017-08-15T07:38:17.721Z,15.92
2017-08-15T07:39:18.340Z,16.02
2017-08-15T07:40:18.964Z,16.00
2017-08-15T07:41:19.585Z,16.20
2017-08-15T07:42:20.207Z,16.15
2017-08-15T07:43:20.825Z,16.13
2017-08-15T07:44:21.443Z,16.17
2017-08-15T07:45:22.063Z,16.20
2017-08-15T07:46:22.688Z,16.13
2017-08-15T07:47:23.361Z,16.10
2017-08-15T07:48:23.978Z,16.08
2017-08-15T07:49:24.597Z,16.12
2017-08-15T07:50:25.220Z,16.12
2017-08-15T07:51:25.849Z,16.17
2017-08-15T07:52:26.467Z,16.24
2017-08-15T07:53:27.091Z,16.33
2017-08-15T07:54:27.708Z,16.35
2017-08-15T07:55:28.327Z,16.36
2017-08-15T07:56:28.952Z,16.43
2017-08-15T07:57:29.567Z,16.46
2017-08-15T07:58:30.186Z,16.50
2017-08-15T07:59:30.813Z,16.50
2017-08-15T08:00:31.466Z,16.56
2017-08-15T08:01:32.085Z,16.60
2017-08-15T08:02:32.705Z,16.57
2017-08-15T08:03:33.324Z,16.54
2017-08-15T08:04:33.942Z,16.64
2017-08-15T08:05:34.564Z,16.64
2017-08-15T08:06:35.181Z,16.72
2017-08-15T08:07:35.851Z,16.72
2017-08-15T08:08:36.470Z,16.78
2017-08-15T08:09:37.097Z,16.83
2017-08-15T08:10:37.718Z,16.76
2017-08-15T08:11:38.336Z,16.78
2017-08-15T08:12:38.961Z,16.81
2017-08-15T08:13:39.576Z,16.87
2017-08-15T08:14:40.232Z,16.86
2017-08-15T08:15:40.860Z,16.89
2017-08-15T08:16:41.478Z,16.90
2017-08-15T08:17:42.097Z,16.89
2017-08-15T08:18:42.716Z,16.84
2017-08-15T08:19:43.338Z,16.84
2017-08-15T08:20:43.959Z,17.02
2017-08-15T08:21:44.578Z,16.97
2017-08-15T08:22:45.198Z,16.94
2017-08-15T08:23:45.820Z,16.94
2017-08-15T08:24:46.442Z,16.93
2017-08-15T08:25:47.059Z,17.02
2017-08-15T08:26:47.684Z,17.01
2017-08-15T08:27:48.337Z,17.04
2017-08-15T08:28:48.973Z,17.06
2017-08-15T08:29:49.616Z,17.04
2017-08-15T08:30:50.241Z,17.09
2017-08-15T08:31:50.866Z,17.16
2017-08-15T08:32:51.489Z,17.26
2017-08-15T08:33:52.145Z,17.30
2017-08-15T08:34:52.800Z,17.38
2017-08-15T08:35:53.421Z,17.49
2017-08-15T08:36:54.040Z,17.54
2017-08-15T08:37:54.660Z,17.44
2017-08-15T08:38:55.280Z,17.67
2017-08-15T08:39:55.900Z,17.63
2017-08-15T08:40:56.522Z,17.71
2017-08-15T08:41:57.144Z,17.63
2017-08-15T08:42:57.813Z,17.63
2017-08-15T08:43:58.439Z,17.49
2017-08-15T08:44:59.056Z,17.54
2017-08-15T08:45:59.683Z,17.67
2017-08-15T08:47:00.304Z,17.82
2017-08-15T08:48:00.919Z,17.90
2017-08-15T08:49:01.541Z,17.95
2017-08-15T08:50:02.160Z,17.90
2017-08-15T08:51:02.793Z,17.85
2017-08-15T08:52:03.405Z,17.83
2017-08-15T08:53:04.028Z,17.85
2017-08-15T08:54:04.653Z,17.87
2017-08-15T08:55:05.272Z,17.90
2017-08-15T08:56:05.892Z,17.97
2017-08-15T08:57:06.515Z,18.11
2017-08-15T08:58:07.134Z,18.10
2017-08-15T08:59:07.755Z,18.00
2017-08-15T09:00:08.380Z,18.07
2017-08-15T09:01:08.997Z,18.16
2017-08-15T09:02:09.619Z,18.18
2017-08-15T09:03:10.293Z,18.10
2017-08-15T09:04:10.912Z,18.16
2017-08-15T09:05:11.532Z,18.23
2017-08-15T09:06:12.159Z,18.19
2017-08-15T09:07:12.778Z,18.20
2017-08-15T09:08:13.404Z,18.29
2017-08-15T09:09:14.058Z,18.37
2017-08-15T09:10:14.681Z,18.28
2017-08-15T09:11:15.300Z,18.38
2017-08-15T09:12:15.923Z,18.37
2017-08-15T09:13:16.548Z,18.41
2017-08-15T09:14:17.170Z,18.45
2017-08-15T09:15:17.787Z,18.44
2017-08-15T09:16:18.415Z,18.56
2017-08-15T09:17:19.031Z,18.58
2017-08-15T09:18:19.953Z,18.63
2017-08-15T09:19:20.747Z,18.59
2017-08-15T09:20:21.376Z,18.70
2017-08-15T09:21:21.999Z,18.73
2017-08-15T09:22:22.618Z,18.88
2017-08-15T09:23:23.278Z,18.86
2017-08-15T09:24:23.895Z,18.89
2017-08-15T09:25:24.524Z,18.95
2017-08-15T09:26:25.141Z,18.96
2017-08-15T09:27:25.765Z,19.09
2017-08-15T09:28:26.423Z,19.14
2017-08-15T09:29:27.041Z,19.18
2017-08-15T09:30:27.663Z,19.21
2017-08-15T09:31:28.285Z,19.18
2017-08-15T09:32:28.908Z,19.33
2017-08-15T09:33:29.828Z,19.24
2017-08-15T09:34:30.455Z,19.39
2017-08-15T09:35:31.075Z,19.34
2017-08-15T09:36:31.702Z,19.33
2017-08-15T09:37:32.323Z,19.27
2017-08-15T09:38:32.945Z,19.34
2017-08-15T09:39:33.570Z,19.45
2017-08-15T09:40:34.196Z,19.63
2017-08-15T09:41:34.815Z,19.74
2017-08-15T09:42:35.436Z,19.74
2017-08-15T09:43:36.058Z,19.76
2017-08-15T09:44:36.682Z,19.85
2017-08-15T09:45:37.302Z,19.85
2017-08-15T09:46:37.923Z,19.85
2017-08-15T09:47:38.546Z,19.99
2017-08-15T09:48:39.452Z,20.02
2017-08-15T09:49:40.072Z,20.07
2017-08-15T09:50:40.694Z,20.19
2017-08-15T09:51:41.322Z,20.22
2017-08-15T09:52:41.943Z,20.19
2017-08-15T09:53:42.564Z,20.25
2017-08-15T09:54:43.192Z,20.16
2017-08-15T09:55:43.816Z,20.09
2017-08-15T09:56:44.435Z,20.07
2017-08-15T09:57:45.063Z,19.92
2017-08-15T09:58:45.733Z,19.96
2017-08-15T09:59:46.392Z,19.81
2017-08-15T10:00:47.014Z,19.82
2017-08-15T10:01:47.636Z,19.89
2017-08-15T10:02:48.258Z,19.81
2017-08-15T10:03:48.881Z,19.86
2017-08-15T10:04:49.510Z,19.92
2017-08-15T10:05:50.135Z,20.00
2017-08-15T10:06:50.791Z,20.36
2017-08-15T10:07:51.414Z,20.44
2017-08-15T10:08:52.089Z,20.52
2017-08-15T10:09:52.715Z,20.55
2017-08-15T10:10:53.336Z,20.58
2017-08-15T10:11:53.959Z,20.78
2017-08-15T10:12:54.589Z,20.84
2017-08-15T10:13:55.508Z,20.87
2017-08-15T10:14:56.131Z,20.90
2017-08-15T10:15:56.752Z,20.88
2017-08-15T10:16:57.375Z,20.85
2017-08-15T10:17:57.999Z,20.99
2017-08-15T10:18:58.626Z,21.03
2017-08-15T10:19:59.248Z,20.96
2017-08-15T10:20:59.870Z,20.93
2017-08-15T10:22:00.494Z,20.90
2017-08-15T10:23:01.151Z,20.92
2017-08-15T10:24:01.815Z,20.85
2017-08-15T10:25:02.472Z,20.78
2017-08-15T10:26:03.094Z,20.84
2017-08-15T10:27:03.722Z,20.84
2017-08-15T10:28:04.344Z,20.97
2017-08-15T10:29:04.970Z,20.99
2017-08-15T10:30:05.626Z,21.00
2017-08-15T10:31:06.249Z,21.06
2017-08-15T10:32:06.873Z,21.25
2017-08-15T10:33:07.497Z,21.39
2017-08-15T10:34:08.121Z,21.45
2017-08-15T10:35:08.747Z,21.48
2017-08-15T10:36:09.369Z,21.51
2017-08-15T10:37:09.993Z,21.54
2017-08-15T10:38:10.616Z,21.61
2017-08-15T10:39:11.246Z,21.67
2017-08-15T10:40:11.870Z,21.69
2017-08-15T10:41:12.492Z,21.66
2017-08-15T10:42:13.114Z,21.80
2017-08-15T10:43:13.743Z,21.87
2017-08-15T10:44:14.416Z,21.95
2017-08-15T10:45:15.039Z,22.04
2017-08-15T10:46:15.668Z,22.06
2017-08-15T10:47:16.290Z,22.14
2017-08-15T10:48:16.912Z,22.25
2017-08-15T10:49:17.837Z,22.32
2017-08-15T10:50:18.457Z,22.33
2017-08-15T10:51:19.081Z,22.41
2017-08-15T10:52:19.712Z,22.53
2017-08-15T10:53:20.379Z,22.59
2017-08-15T10:54:21.000Z,22.65
2017-08-15T10:55:21.623Z,22.73
2017-08-15T10:56:22.250Z,22.78
2017-08-15T10:57:22.875Z,22.81
2017-08-15T10:58:23.505Z,22.83
2017-08-15T10:59:24.178Z,22.90
2017-08-15T11:00:24.805Z,22.88
2017-08-15T11:01:25.431Z,22.84
2017-08-15T11:02:26.056Z,22.78
2017-08-15T11:03:26.687Z,22.73
2017-08-15T11:04:27.308Z,22.81
2017-08-15T11:05:27.933Z,22.98
2017-08-15T11:06:28.594Z,23.10
2017-08-15T11:07:29.225Z,23.03
2017-08-15T11:08:29.849Z,23.00
2017-08-15T11:09:30.783Z,22.91
2017-08-15T11:10:31.412Z,22.84
2017-08-15T11:11:32.040Z,22.81
2017-08-15T11:12:32.664Z,22.80
2017-08-15T11:13:33.288Z,22.75
2017-08-15T11:14:33.919Z,22.80
2017-08-15T11:15:34.550Z,22.98
2017-08-15T11:16:35.177Z,23.02
2017-08-15T11:17:35.798Z,23.05
2017-08-15T11:18:36.422Z,23.12
2017-08-15T11:19:37.053Z,23.20
2017-08-15T11:20:37.677Z,23.27
2017-08-15T11:21:38.308Z,23.20
2017-08-15T11:22:38.931Z,23.34
2017-08-15T11:23:39.561Z,23.28
2017-08-15T11:24:40.493Z,23.25
2017-08-15T11:25:41.115Z,23.36
2017-08-15T11:26:41.739Z,23.47
2017-08-15T11:27:42.366Z,23.51
2017-08-15T11:28:42.993Z,23.51
2017-08-15T11:29:43.623Z,23.54
2017-08-15T11:30:44.244Z,23.47
2017-08-15T11:31:44.904Z,23.51
2017-08-15T11:32:45.533Z,23.50
2017-08-15T11:33:46.161Z,23.47
2017-08-15T11:34:47.038Z,23.65
2017-08-15T11:35:47.665Z,23.62
2017-08-15T11:36:48.290Z,23.66
2017-08-15T11:37:48.918Z,23.55
2017-08-15T11:38:49.543Z,23.50
2017-08-15T11:39:50.174Z,23.39
2017-08-15T11:40:50.803Z,23.41
2017-08-15T11:41:51.462Z,23.48
2017-08-15T11:42:52.088Z,23.51
2017-08-15T11:43:52.715Z,23.46
2017-08-15T11:44:53.340Z,23.43
2017-08-15T11:45:53.964Z,23.55
2017-08-15T11:46:54.589Z,23.51
2017-08-15T11:47:55.216Z,23.43
2017-08-15T11:48:55.875Z,23.40
2017-08-15T11:49:56.535Z,23.40
2017-08-15T11:50:57.195Z,23.32
2017-08-15T11:51:57.822Z,23.41
2017-08-15T11:52:58.446Z,23.34
2017-08-15T11:53:59.072Z,23.36
2017-08-15T11:54:59.705Z,23.51
2017-08-15T11:56:00.328Z,23.47
2017-08-15T11:57:00.953Z,23.43
2017-08-15T11:58:01.583Z,23.51
2017-08-15T11:59:02.210Z,23.50
2017-08-15T12:00:02.886Z,23.55
2017-08-15T12:01:03.513Z,23.63
2017-08-15T12:02:04.143Z,23.65
2017-08-15T12:03:04.768Z,23.78
2017-08-15T12:04:05.427Z,23.77
2017-08-15T12:05:06.054Z,23.63
2017-08-15T12:06:06.680Z,23.50
2017-08-15T12:07:07.306Z,23.58
2017-08-15T12:08:07.940Z,23.58
2017-08-15T12:09:08.565Z,23.74
2017-08-15T12:10:09.196Z,23.87
2017-08-15T12:11:09.819Z,23.98
2017-08-15T12:12:10.449Z,23.91
2017-08-15T12:13:11.105Z,23.73
2017-08-15T12:14:11.764Z,23.46
2017-08-15T12:15:12.424Z,23.40
2017-08-15T12:16:13.085Z,23.44
2017-08-15T12:17:13.719Z,23.54
2017-08-15T12:18:14.343Z,23.65
2017-08-15T12:19:14.971Z,23.77
2017-08-15T12:20:15.595Z,23.88
2017-08-15T12:21:16.224Z,23.95
2017-08-15T12:22:16.881Z,23.84
2017-08-15T12:23:17.506Z,23.83
2017-08-15T12:24:18.165Z,23.71
2017-08-15T12:25:19.091Z,23.61
2017-08-15T12:26:19.721Z,23.69
2017-08-15T12:27:20.352Z,23.68
2017-08-15T12:28:20.985Z,23.73
2017-08-15T12:29:21.640Z,23.87
2017-08-15T12:30:22.273Z,24.05
2017-08-15T12:31:22.896Z,23.98
2017-08-15T12:32:23.523Z,23.87
2017-08-15T12:33:24.148Z,23.91
2017-08-15T12:34:24.775Z,23.91
2017-08-15T12:35:25.401Z,23.95
2017-08-15T12:36:26.028Z,23.98
2017-08-15T12:37:26.654Z,23.93
2017-08-15T12:38:27.282Z,24.02
2017-08-15T12:39:28.186Z,24.10
2017-08-15T12:40:28.812Z,24.23
2017-08-15T12:41:29.439Z,24.38
2017-08-15T12:42:30.070Z,24.36
2017-08-15T12:43:30.693Z,24.43
2017-08-15T12:44:31.318Z,24.50
2017-08-15T12:45:32.002Z,24.58
2017-08-15T12:46:32.633Z,24.77
2017-08-15T12:47:33.256Z,24.55
2017-08-15T12:48:33.888Z,24.54
2017-08-15T12:49:34.518Z,24.65
2017-08-15T12:50:35.444Z,24.77
2017-08-15T12:51:36.071Z,25.03
2017-08-15T12:52:36.698Z,25.08
2017-08-15T12:53:37.327Z,25.08
2017-08-15T12:54:37.950Z,24.89
2017-08-15T12:55:38.578Z,24.53
2017-08-15T12:56:39.209Z,24.38
2017-08-15T12:57:39.833Z,24.47
2017-08-15T12:58:40.465Z,24.39
2017-08-15T12:59:41.095Z,24.38
2017-08-15T13:00:41.718Z,24.50